Terminal Aerodrome Forecast
Issued by NWS

Home | Current Version | Previous Version | Text Only | Print | Product List | Glossary On
Versions: 1 2 3 4 5 6 7 8 9 10 11 12 13 14 15 16 17 18 19 20 21 22 23 24 25 26 27 28 29 30 31 32 33
000
FTUS43 KDLH 211453 AAA
TAFHIB
TAF AMD
KHIB 211453Z 2115/2212 VRB03KT 1/4SM FZFG VV001
     FM211700 34003KT 3SM BR SCT005
     FM211800 36004KT 5SM BR BKN010
     FM212000 36004KT P6SM BKN018
     FM212300 01004KT P6SM BKN015
     FM220500 04004KT 3SM BR OVC008=

USA.gov is the U.S. government's official web portal to all federal, state and local government web resources and services.